Time;durP1;ratioP1;P1;durP2;ratioP2;P2;SDS_P1;SDS_P2;PMS_P1;PMS_P2;Temp;Humidity;BMP_temperature;BMP_pressure;BME280_temperature;BME280_humidity;BME280_pressure;Samples;Min_cycle;Max_cycle;Signal;HPM_P1;HPM_P2
2022/11/05 00:10:37;;;;;;;22.90;10.73;;;25.80;99.90;;;;;;5093807;28;20099;-65
2022/11/05 00:18:40;;;;;;;21.98;12.45;;;25.80;99.90;;;;;;5093545;28;20024;-66
2022/11/05 00:25:12;;;;;;;23.83;11.82;;;25.90;99.90;;;;;;5093692;28;20069;-65
2022/11/05 00:26:39;;;;;;;23.45;14.15;;;26.10;99.90;;;;;;5093555;28;20031;-65
2022/11/05 00:29:08;;;;;;;23.70;12.52;;;26.20;99.90;;;;;;5093550;28;20012;-65
2022/11/05 00:31:35;;;;;;;21.88;11.95;;;26.10;99.90;;;;;;5093755;28;20028;-64
2022/11/05 00:34:02;;;;;;;29.27;16.13;;;26.10;99.90;;;;;;5093565;28;20061;-65
2022/11/05 00:36:28;;;;;;;51.30;26.10;;;26.20;99.90;;;;;;5093465;28;20078;-65
2022/11/05 00:38:55;;;;;;;51.22;29.85;;;26.20;99.90;;;;;;5093567;28;20028;-65
2022/11/05 00:41:21;;;;;;;64.28;45.55;;;26.30;99.90;;;;;;5093566;28;20020;-65
2022/11/05 00:46:34;;;;;;;40.70;32.60;;;26.20;99.90;;;;;;5093238;28;20071;-65
2022/11/05 00:52:54;;;;;;;40.78;24.98;;;26.30;99.90;;;;;;5093500;28;20016;-65
2022/11/05 00:54:33;;;;;;;27.23;18.88;;;26.40;99.90;;;;;;5092923;28;20024;-64
2022/11/05 00:57:00;;;;;;;29.23;15.52;;;26.50;99.90;;;;;;5093439;28;20024;-65
2022/11/05 00:59:26;;;;;;;38.70;15.65;;;26.50;99.90;;;;;;5093345;28;20027;-64
2022/11/05 01:01:53;;;;;;;29.27;14.98;;;26.50;99.90;;;;;;5093123;28;20020;-66
2022/11/05 01:04:19;;;;;;;28.42;15.60;;;26.50;99.90;;;;;;5093367;28;20020;-66
2022/11/05 01:06:46;;;;;;;31.90;19.13;;;26.40;99.90;;;;;;5093237;28;20031;-65
2022/11/05 01:09:12;;;;;;;45.25;28.77;;;26.50;99.90;;;;;;5093009;28;20101;-65
2022/11/05 01:11:40;;;;;;;77.13;52.35;;;26.50;99.90;;;;;;5093043;28;20058;-66
2022/11/05 01:14:10;;;;;;;42.05;25.83;;;26.60;99.90;;;;;;5092999;28;20036;-66
2022/11/05 01:16:38;;;;;;;35.17;19.20;;;26.60;99.90;;;;;;5092976;28;20077;-66
2022/11/05 01:19:06;;;;;;;34.22;17.92;;;26.70;99.90;;;;;;5093032;28;20032;-66
2022/11/05 01:21:33;;;;;;;32.55;18.15;;;26.70;99.90;;;;;;5093119;28;20024;-66
2022/11/05 01:24:00;;;;;;;26.42;15.82;;;26.80;99.90;;;;;;5092949;28;20028;-66
2022/11/05 01:26:27;;;;;;;27.52;15.75;;;26.70;99.90;;;;;;5093024;28;20032;-66
2022/11/05 01:28:55;;;;;;;28.10;19.45;;;26.80;99.90;;;;;;5096893;28;20157;-65
2022/11/05 01:31:22;;;;;;;30.45;17.85;;;26.90;99.90;;;;;;5096722;28;20472;-66
2022/11/05 01:33:49;;;;;;;35.22;16.83;;;26.90;99.90;;;;;;5096802;28;20016;-66
2022/11/05 01:36:16;;;;;;;23.13;15.13;;;26.70;99.90;;;;;;5096811;28;20055;-66
2022/11/05 01:38:43;;;;;;;25.58;16.17;;;26.70;99.90;;;;;;5096560;28;20032;-66
2022/11/05 01:41:10;;;;;;;23.98;14.80;;;26.80;99.90;;;;;;5096679;28;20031;-65
2022/11/05 01:43:46;;;;;;;25.15;14.68;;;27.00;99.90;;;;;;5096629;28;20024;-66
2022/11/05 01:46:15;;;;;;;29.85;16.00;;;27.00;99.90;;;;;;5096284;28;20154;-65
2022/11/05 01:48:41;;;;;;;23.15;14.13;;;27.10;99.90;;;;;;5096456;28;20430;-66
2022/11/05 01:51:12;;;;;;;25.58;14.35;;;27.10;99.90;;;;;;5096557;28;20044;-65
2022/11/05 01:54:01;;;;;;;24.27;16.70;;;27.20;99.90;;;;;;5096590;28;20024;-66
2022/11/05 01:56:39;;;;;;;28.85;16.52;;;27.30;99.90;;;;;;5096215;28;20024;-66
2022/11/05 01:59:08;;;;;;;35.78;17.27;;;27.40;99.90;;;;;;5096374;28;20032;-65
2022/11/05 02:01:34;;;;;;;27.42;17.13;;;27.50;99.90;;;;;;5096329;28;20086;-65
2022/11/05 02:04:04;;;;;;;26.52;19.38;;;27.50;99.90;;;;;;5096474;28;20028;-66
2022/11/05 02:06:35;;;;;;;31.90;19.35;;;27.60;99.90;;;;;;5096478;28;20024;-66
2022/11/05 02:09:17;;;;;;;34.40;21.08;;;27.60;99.90;;;;;;5096320;28;20020;-66
2022/11/05 02:11:43;;;;;;;31.77;19.00;;;27.70;99.90;;;;;;5096232;28;20016;-66
2022/11/05 02:14:10;;;;;;;40.28;23.48;;;27.80;99.90;;;;;;5095985;28;20036;-66
2022/11/05 02:16:36;;;;;;;40.40;23.23;;;27.90;99.90;;;;;;5095955;28;20020;-66
2022/11/05 02:19:17;;;;;;;36.42;21.15;;;27.90;99.90;;;;;;5096108;28;20035;-66
2022/11/05 02:22:15;;;;;;;38.65;22.75;;;27.90;99.90;;;;;;5071549;28;20041;-66
2022/11/05 02:24:55;;;;;;;43.05;26.13;;;28.00;99.90;;;;;;5055553;28;20031;-67
2022/11/05 02:27:40;;;;;;;41.78;23.65;;;28.30;99.90;;;;;;5058580;28;20024;-66
2022/11/05 02:30:38;;;;;;;36.55;23.00;;;28.50;99.90;;;;;;5075793;28;20024;-66
2022/11/05 02:33:13;;;;;;;38.60;22.52;;;28.60;99.90;;;;;;5058679;28;20033;-66
2022/11/05 02:35:46;;;;;;;29.08;17.92;;;28.60;99.90;;;;;;5055357;28;20028;-68
2022/11/05 02:38:19;;;;;;;34.38;18.38;;;28.60;99.90;;;;;;5054642;28;20025;-64
2022/11/05 02:40:46;;;;;;;33.75;18.38;;;28.60;99.90;;;;;;5054911;28;20107;-65
2022/11/05 02:43:17;;;;;;;35.15;20.52;;;28.40;99.90;;;;;;5055108;28;20524;-66
2022/11/05 02:46:01;;;;;;;22.97;15.00;;;28.50;99.90;;;;;;5055232;28;20108;-65
2022/11/05 02:48:55;;;;;;;22.55;14.95;;;28.50;99.90;;;;;;5055070;28;20389;-65
2022/11/05 02:51:37;;;;;;;20.75;12.90;;;28.70;99.90;;;;;;4935612;29;20040;-65
2022/11/05 02:54:36;;;;;;;23.63;12.75;;;28.70;99.90;;;;;;4935772;29;20119;-64
2022/11/05 02:57:04;;;;;;;25.73;18.38;;;28.80;99.90;;;;;;4897668;29;20049;-65
2022/11/05 02:59:30;;;;;;;25.98;14.93;;;28.80;99.90;;;;;;4897799;29;20084;-64
2022/11/05 03:01:58;;;;;;;120.85;91.80;;;28.80;99.90;;;;;;4897602;29;20040;-65
2022/11/05 03:04:25;;;;;;;22.38;12.48;;;28.80;99.90;;;;;;4897997;29;20037;-65
2022/11/05 03:07:03;;;;;;;14.70;10.23;;;28.80;99.90;;;;;;4897628;29;20040;-65
2022/11/05 03:10:04;;;;;;;14.38;9.32;;;28.90;99.90;;;;;;4904190;29;20044;-65
2022/11/05 03:12:38;;;;;;;15.13;11.32;;;28.90;99.90;;;;;;4897143;29;20036;-65
2022/11/05 03:15:15;;;;;;;13.95;10.55;;;28.90;99.90;;;;;;4897357;29;20037;-65
2022/11/05 03:17:47;;;;;;;16.88;11.13;;;29.00;99.90;;;;;;4897068;29;20055;-65
2022/11/05 03:20:19;;;;;;;17.92;11.57;;;29.00;99.90;;;;;;4897460;29;20033;-65
2022/11/05 03:23:07;;;;;;;18.98;10.75;;;29.20;99.90;;;;;;4897168;29;20072;-63
2022/11/05 03:25:40;;;;;;;13.73;10.38;;;29.30;99.90;;;;;;4896571;29;20029;-64
2022/11/05 03:28:10;;;;;;;15.32;10.63;;;29.30;99.90;;;;;;4932129;28;20181;-63
2022/11/05 03:30:39;;;;;;;14.57;10.70;;;29.50;99.90;;;;;;4992477;28;20542;-64
2022/11/05 03:33:12;;;;;;;15.27;11.05;;;29.50;99.90;;;;;;4992837;28;20037;-64
2022/11/05 03:35:44;;;;;;;21.05;12.20;;;29.40;99.90;;;;;;4992643;28;20026;-65
2022/11/05 03:38:13;;;;;;;;;;;29.50;99.90;;;;;;4993336;28;20038;-66
2022/11/05 03:40:41;;;;;;;18.70;11.23;;;29.50;99.90;;;;;;4992630;28;20382;-65
2022/11/05 03:43:08;;;;;;;14.45;11.98;;;29.50;99.90;;;;;;4992768;28;20030;-64
2022/11/05 03:45:40;;;;;;;14.93;10.45;;;29.40;99.90;;;;;;4992543;28;20440;-64
2022/11/05 03:48:09;;;;;;;;;;;29.40;99.90;;;;;;4992859;28;20103;-64
2022/11/05 03:50:55;;;;;;;18.92;10.43;;;29.40;99.90;;;;;;4992354;28;19902;-65
2022/11/05 03:53:27;;;;;;;15.63;10.80;;;29.50;99.90;;;;;;4998055;28;20104;-65
2022/11/05 03:55:57;;;;;;;24.13;15.90;;;29.70;99.90;;;;;;5001193;28;20484;-65
2022/11/05 03:58:25;;;;;;;14.23;10.93;;;29.70;99.90;;;;;;4991974;28;20388;-64
2022/11/05 04:00:51;;;;;;;12.32;10.00;;;29.70;99.90;;;;;;5048384;28;20045;-65
2022/11/05 04:03:18;;;;;;;18.73;14.43;;;29.80;99.90;;;;;;5053661;28;20371;-64
2022/11/05 04:13:22;;;;;;;17.45;12.82;;;29.90;99.90;;;;;;5053457;28;20136;-64
2022/11/05 04:14:04;;;;;;;19.58;14.93;;;30.10;99.90;;;;;;5053330;28;20068;-64
2022/11/05 04:24:07;;;;;;;38.17;34.20;;;30.40;99.90;;;;;;5059367;28;20447;-64
2022/11/05 04:24:50;;;;;;;15.88;10.98;;;30.50;99.90;;;;;;5071246;28;20040;-64
2022/11/05 04:27:17;;;;;;;12.88;9.60;;;30.50;99.90;;;;;;5071716;28;20477;-64
2022/11/05 04:32:29;;;;;;;16.70;9.82;;;30.40;99.90;;;;;;5069619;28;20024;-64
2022/11/05 04:34:56;;;;;;;11.55;9.57;;;30.40;99.90;;;;;;5070947;28;20032;-64
2022/11/05 04:37:23;;;;;;;18.75;10.85;;;30.30;99.90;;;;;;5071457;28;20028;-65
2022/11/05 04:39:49;;;;;;;13.00;9.18;;;30.50;99.90;;;;;;5072043;28;20477;-64
2022/11/05 04:42:16;;;;;;;12.63;10.00;;;30.40;99.90;;;;;;5072579;28;20021;-63
2022/11/05 04:44:42;;;;;;;11.10;9.63;;;30.30;99.90;;;;;;5070723;28;20021;-64
2022/11/05 04:47:09;;;;;;;22.58;13.13;;;30.40;99.90;;;;;;5072187;28;20021;-64
2022/11/05 04:49:35;;;;;;;19.20;13.90;;;30.60;99.90;;;;;;5072201;28;20024;-64
2022/11/05 04:52:02;;;;;;;14.63;10.68;;;30.70;99.90;;;;;;5072065;28;20025;-64
2022/11/05 04:54:28;;;;;;;26.08;18.00;;;31.00;99.90;;;;;;5071891;28;20370;-64
2022/11/05 04:56:55;;;;;;;18.30;12.20;;;31.00;99.90;;;;;;5071971;28;20029;-65
2022/11/05 04:59:22;;;;;;;18.02;13.35;;;30.80;99.90;;;;;;5072072;28;20405;-65
2022/11/05 05:01:51;;;;;;;12.85;9.93;;;30.80;99.90;;;;;;5072056;28;20018;-64
2022/11/05 05:04:19;;;;;;;17.30;11.95;;;31.10;99.90;;;;;;5076089;28;20020;-64
2022/11/05 05:06:46;;;;;;;18.27;13.38;;;31.00;99.90;;;;;;5073878;28;20415;-63
2022/11/05 05:09:12;;;;;;;19.08;11.80;;;31.10;99.90;;;;;;5076017;28;20065;-63
2022/11/05 05:11:39;;;;;;;19.00;11.85;;;31.30;99.90;;;;;;5075865;28;20036;-62
2022/11/05 05:14:06;;;;;;;14.65;11.07;;;31.20;99.90;;;;;;5075514;28;20450;-63
2022/11/05 05:16:32;;;;;;;12.80;10.63;;;31.00;99.90;;;;;;5075661;28;20024;-63
2022/11/05 05:18:59;;;;;;;28.50;15.95;;;30.90;99.90;;;;;;5075643;28;20031;-63
2022/11/05 05:24:18;;;;;;;23.95;13.48;;;31.00;99.90;;;;;;5076659;28;20029;-64
2022/11/05 05:26:47;;;;;;;47.80;30.20;;;31.00;99.90;;;;;;5076774;28;20039;-62
2022/11/05 05:29:14;;;;;;;25.52;17.00;;;31.10;99.90;;;;;;5075894;28;20031;-62
2022/11/05 05:31:41;;;;;;;20.73;15.73;;;31.30;99.90;;;;;;5073226;22;20044;-64
2022/11/05 05:34:11;;;;;;;23.52;13.23;;;31.40;99.90;;;;;;5076127;28;20118;-61
2022/11/05 05:36:38;;;;;;;27.70;13.55;;;31.60;99.90;;;;;;5075794;28;20078;-62
2022/11/05 05:39:06;;;;;;;30.42;12.75;;;31.70;99.90;;;;;;5075071;28;20025;-62
2022/11/05 05:41:33;;;;;;;26.35;18.25;;;31.50;99.90;;;;;;5075337;28;20039;-62
2022/11/05 05:43:59;;;;;;;39.03;21.63;;;31.40;99.90;;;;;;5074843;28;20032;-63
2022/11/05 05:46:26;;;;;;;39.85;19.55;;;31.50;99.90;;;;;;5074550;28;20017;-63
2022/11/05 05:48:53;;;;;;;37.70;22.20;;;31.40;99.90;;;;;;5075018;28;20024;-61
2022/11/05 05:51:19;;;;;;;34.97;19.77;;;31.40;99.90;;;;;;5075003;28;20024;-60
2022/11/05 05:53:46;;;;;;;30.67;17.83;;;31.50;99.90;;;;;;5075068;28;20024;-62
2022/11/05 05:56:17;;;;;;;22.52;13.00;;;31.60;99.90;;;;;;5075137;28;20028;-61
2022/11/05 05:58:44;;;;;;;22.90;13.15;;;31.70;99.90;;;;;;5072591;28;20460;-61
2022/11/05 06:01:13;;;;;;;27.23;14.52;;;31.70;99.90;;;;;;5074676;28;20090;-62
2022/11/05 06:03:40;;;;;;;22.10;13.43;;;31.70;99.90;;;;;;5074821;28;20052;-61
2022/11/05 06:06:11;;;;;;;20.23;13.52;;;31.70;99.90;;;;;;5073441;28;20415;-61
2022/11/05 06:08:38;;;;;;;25.08;16.95;;;31.60;99.90;;;;;;5072259;28;20466;-62
2022/11/05 06:11:06;;;;;;;26.58;14.15;;;31.70;99.90;;;;;;5074963;28;20028;-62
2022/11/05 06:13:34;;;;;;;27.80;16.05;;;31.80;99.90;;;;;;5074351;28;20034;-62
2022/11/05 06:16:02;;;;;;;18.95;13.68;;;31.80;99.90;;;;;;5074715;28;20036;-61
2022/11/05 06:18:30;;;;;;;31.27;16.23;;;31.70;99.90;;;;;;5075086;28;20465;-62
2022/11/05 06:21:07;;;;;;;17.10;13.23;;;31.80;99.90;;;;;;5074201;28;20482;-61
2022/11/05 06:23:35;;;;;;;19.83;13.77;;;31.90;99.90;;;;;;5074408;28;20020;-61
2022/11/05 06:26:05;;;;;;;20.88;14.27;;;31.80;99.90;;;;;;5071606;28;20074;-62
2022/11/05 06:28:32;;;;;;;22.65;15.35;;;31.80;99.90;;;;;;5073998;28;20028;-62
2022/11/05 06:30:59;;;;;;;22.90;14.43;;;32.00;99.90;;;;;;5073942;28;20068;-63
2022/11/05 06:33:26;;;;;;;19.20;12.13;;;32.00;99.90;;;;;;5073715;28;20048;-63
2022/11/05 06:35:54;;;;;;;16.15;11.52;;;32.00;99.90;;;;;;5071966;28;20520;-64
2022/11/05 06:38:20;;;;;;;22.55;14.38;;;32.10;99.90;;;;;;5072583;28;20032;-62
2022/11/05 06:40:47;;;;;;;20.85;14.77;;;32.00;99.90;;;;;;5071203;28;20048;-63
2022/11/05 06:43:13;;;;;;;27.88;16.42;;;32.00;99.90;;;;;;5073801;28;20473;-62
2022/11/05 06:45:40;;;;;;;19.23;13.30;;;32.00;99.90;;;;;;5073689;28;20044;-63
2022/11/05 06:48:07;;;;;;;21.40;13.13;;;31.90;99.90;;;;;;5073218;28;20371;-62
2022/11/05 06:50:33;;;;;;;22.48;12.52;;;32.00;99.90;;;;;;5072693;28;20560;-62
2022/11/05 06:53:01;;;;;;;15.48;10.48;;;32.10;99.90;;;;;;5073986;28;20048;-63
2022/11/05 06:55:30;;;;;;;14.30;11.77;;;32.20;99.90;;;;;;5073304;28;20016;-62
2022/11/05 06:57:57;;;;;;;15.65;11.10;;;32.20;99.90;;;;;;5074185;28;20036;-64
2022/11/05 07:00:24;;;;;;;14.15;11.00;;;32.30;99.90;;;;;;5074929;28;20024;-63
2022/11/05 07:02:50;;;;;;;20.67;11.45;;;32.20;99.90;;;;;;5074635;28;20481;-63
2022/11/05 07:05:17;;;;;;;19.08;13.45;;;32.30;99.90;;;;;;5074715;28;20024;-63
2022/11/05 07:07:44;;;;;;;17.45;12.05;;;32.20;99.90;;;;;;5071315;28;20442;-63
2022/11/05 07:10:15;;;;;;;16.95;10.02;;;32.30;99.90;;;;;;5074355;28;20035;-63
2022/11/05 07:12:42;;;;;;;16.45;11.10;;;32.30;99.90;;;;;;5074962;28;20074;-65
2022/11/05 07:15:10;;;;;;;12.25;9.75;;;32.40;99.90;;;;;;5073545;28;20103;-63
2022/11/05 07:17:37;;;;;;;19.60;13.05;;;32.50;99.90;;;;;;5073027;28;20448;-63
2022/11/05 07:20:05;;;;;;;19.45;10.77;;;32.50;99.90;;;;;;5073412;28;20044;-66
2022/11/05 07:22:32;;;;;;;16.23;11.32;;;32.60;99.90;;;;;;5073869;28;20074;-65
2022/11/05 07:24:59;;;;;;;17.58;10.82;;;32.50;99.90;;;;;;5081065;28;20020;-64
2022/11/05 07:27:25;;;;;;;16.02;12.93;;;32.50;99.90;;;;;;5083306;28;20035;-65
2022/11/05 07:29:52;;;;;;;19.92;13.20;;;32.60;99.90;;;;;;5082547;28;20044;-65
2022/11/05 07:32:18;;;;;;;15.30;10.38;;;32.50;99.90;;;;;;5074268;28;20103;-64
2022/11/05 07:34:45;;;;;;;13.93;9.45;;;32.50;99.90;;;;;;5074119;28;20077;-65
2022/11/05 07:37:11;;;;;;;13.70;10.48;;;32.60;99.90;;;;;;5074046;28;20047;-68
2022/11/05 07:39:38;;;;;;;15.30;10.50;;;32.60;99.90;;;;;;5074047;28;20431;-64
2022/11/05 07:42:04;;;;;;;15.15;9.57;;;32.60;99.90;;;;;;5073992;28;20028;-65
2022/11/05 07:44:31;;;;;;;17.48;9.90;;;32.50;99.90;;;;;;5073896;28;20036;-66
2022/11/05 07:46:57;;;;;;;18.00;10.30;;;32.40;99.90;;;;;;5068327;28;20040;-65
2022/11/05 07:49:24;;;;;;;23.25;9.88;;;32.50;99.90;;;;;;5074013;28;20110;-64
2022/11/05 07:51:52;;;;;;;14.82;10.32;;;32.60;99.90;;;;;;5074110;28;20144;-65
2022/11/05 07:54:19;;;;;;;16.08;10.50;;;32.50;99.90;;;;;;5073681;28;20033;-66
2022/11/05 07:56:46;;;;;;;20.55;11.25;;;32.50;99.90;;;;;;5073734;28;20043;-65
2022/11/05 07:59:13;;;;;;;21.90;10.60;;;32.50;99.90;;;;;;5073702;28;20507;-65
2022/11/05 08:01:39;;;;;;;16.60;11.55;;;32.70;99.90;;;;;;5073639;28;20025;-65
2022/11/05 08:04:06;;;;;;;16.25;10.40;;;32.70;99.90;;;;;;5073513;28;20098;-66
2022/11/05 08:06:32;;;;;;;26.17;13.57;;;32.50;99.90;;;;;;5073541;28;20098;-65
2022/11/05 08:08:59;;;;;;;16.60;11.02;;;32.50;99.90;;;;;;5073594;28;20025;-65
2022/11/05 08:11:25;;;;;;;17.17;10.25;;;32.50;99.90;;;;;;5073378;28;20527;-66
2022/11/05 08:13:52;;;;;;;17.60;12.07;;;32.40;99.90;;;;;;5073682;28;20024;-66
2022/11/05 08:16:18;;;;;;;20.27;11.70;;;32.40;99.90;;;;;;5073775;28;20052;-65
2022/11/05 08:18:45;;;;;;;23.27;14.80;;;32.40;99.90;;;;;;5086895;28;20107;-66
2022/11/05 08:21:12;;;;;;;16.38;11.20;;;32.50;99.90;;;;;;5093442;28;20032;-66
2022/11/05 08:23:39;;;;;;;21.45;13.38;;;32.50;99.90;;;;;;5093698;28;20052;-66
2022/11/05 08:26:05;;;;;;;16.50;10.38;;;32.40;99.90;;;;;;5093316;28;20032;-63
2022/11/05 08:28:32;;;;;;;19.00;11.70;;;32.50;99.90;;;;;;5093709;28;20090;-64
2022/11/05 08:30:58;;;;;;;22.90;9.90;;;32.50;99.90;;;;;;5093407;28;20086;-63
2022/11/05 08:33:26;;;;;;;13.88;8.70;;;32.50;99.90;;;;;;5093543;28;20081;-63
2022/11/05 08:35:52;;;;;;;21.00;11.15;;;32.30;99.90;;;;;;5093019;28;20020;-64
2022/11/05 08:38:19;;;;;;;26.58;16.75;;;32.20;99.90;;;;;;5059985;28;20508;-63
2022/11/05 08:40:54;;;;;;;16.08;11.15;;;32.30;99.90;;;;;;5054824;28;20051;-62
2022/11/05 08:43:21;;;;;;;14.07;10.07;;;32.30;99.90;;;;;;5073141;28;20052;-62
2022/11/05 08:45:48;;;;;;;14.80;8.00;;;32.30;99.90;;;;;;5072247;28;20098;-63
2022/11/05 08:48:16;;;;;;;16.65;9.65;;;32.30;99.90;;;;;;5060122;28;20119;-62
2022/11/05 08:50:44;;;;;;;26.05;14.15;;;32.20;99.90;;;;;;5055462;28;20048;-65
2022/11/05 08:53:12;;;;;;;18.05;11.60;;;32.20;99.90;;;;;;5062928;28;20025;-64
2022/11/05 08:55:39;;;;;;;23.38;13.50;;;32.20;99.90;;;;;;5071104;28;20044;-64
2022/11/05 08:58:11;;;;;;;23.00;12.20;;;32.20;99.90;;;;;;5071500;28;20021;-64
2022/11/05 09:00:38;;;;;;;22.70;11.98;;;32.20;99.90;;;;;;5071096;28;20384;-64
2022/11/05 09:03:06;;;;;;;29.30;13.65;;;32.20;99.90;;;;;;5073196;28;20100;-63
2022/11/05 09:05:38;;;;;;;22.20;13.38;;;32.30;99.90;;;;;;5073099;28;20020;-63
2022/11/05 09:08:09;;;;;;;24.98;13.88;;;32.30;99.90;;;;;;5072866;28;20090;-62
2022/11/05 09:10:35;;;;;;;27.35;16.90;;;32.40;99.90;;;;;;5072813;28;20035;-64
2022/11/05 09:13:03;;;;;;;27.38;13.98;;;32.30;99.90;;;;;;5072812;28;20027;-64
2022/11/05 09:15:30;;;;;;;23.20;16.05;;;32.20;99.90;;;;;;5072573;28;20021;-64
2022/11/05 09:17:57;;;;;;;379.90;275.85;;;32.20;99.90;;;;;;5072482;28;20452;-63
2022/11/05 09:20:23;;;;;;;120.18;80.60;;;32.30;99.90;;;;;;5072768;28;20500;-64
2022/11/05 09:22:50;;;;;;;26.17;18.80;;;32.30;99.90;;;;;;5072655;28;20029;-63
2022/11/05 09:25:17;;;;;;;25.63;15.63;;;32.30;99.90;;;;;;5072626;28;20032;-62
2022/11/05 09:27:44;;;;;;;23.33;11.23;;;32.20;99.90;;;;;;5072499;28;20389;-63
2022/11/05 09:30:12;;;;;;;33.25;13.18;;;32.20;99.90;;;;;;5072346;28;20040;-63
2022/11/05 09:32:39;;;;;;;31.65;15.38;;;32.20;99.90;;;;;;5072623;28;20105;-64
2022/11/05 09:35:06;;;;;;;19.90;12.43;;;32.30;99.90;;;;;;5072529;28;20035;-64
2022/11/05 09:37:33;;;;;;;30.13;13.10;;;32.20;99.90;;;;;;5072532;28;20028;-63
2022/11/05 09:39:59;;;;;;;26.55;14.25;;;32.20;99.90;;;;;;5072713;28;20183;-63
2022/11/05 09:42:32;;;;;;;29.95;16.60;;;32.10;99.90;;;;;;5072736;28;20031;-62
2022/11/05 09:45:02;;;;;;;33.85;17.75;;;32.00;99.90;;;;;;5072450;28;20025;-63
2022/11/05 09:47:50;;;;;;;32.33;18.85;;;32.10;99.90;;;;;;5072552;28;20028;-63
2022/11/05 09:50:26;;;;;;;29.13;17.88;;;32.20;99.90;;;;;;4994278;28;20118;-62
2022/11/05 09:52:53;;;;;;;35.85;20.08;;;32.20;99.90;;;;;;4995166;28;20025;-63
2022/11/05 09:55:35;;;;;;;27.83;15.85;;;32.20;99.90;;;;;;4994771;28;20431;-63
2022/11/05 09:58:14;;;;;;;26.50;15.60;;;32.20;99.90;;;;;;4993520;28;20069;-63
2022/11/05 10:00:41;;;;;;;118.72;78.57;;;32.20;99.90;;;;;;4991891;28;20521;-65
2022/11/05 10:03:14;;;;;;;387.38;262.73;;;32.20;99.90;;;;;;4993221;28;20142;-63
2022/11/05 10:05:41;;;;;;;247.18;157.57;;;32.20;99.90;;;;;;4993496;28;20487;-63
2022/11/05 10:08:25;;;;;;;110.05;67.57;;;32.10;99.90;;;;;;4993072;28;20484;-65
2022/11/05 10:10:55;;;;;;;35.20;20.67;;;32.00;99.90;;;;;;4993309;28;20057;-63
2022/11/05 10:13:21;;;;;;;22.80;15.35;;;32.00;99.90;;;;;;4993039;28;20105;-62
2022/11/05 10:16:20;;;;;;;28.30;15.90;;;31.90;99.90;;;;;;4993028;28;20073;-63
2022/11/05 10:19:00;;;;;;;28.58;15.75;;;31.90;99.90;;;;;;4992362;28;20030;-63
2022/11/05 10:21:26;;;;;;;20.23;12.88;;;31.80;99.90;;;;;;5050162;28;20108;-63
2022/11/05 10:23:54;;;;;;;23.17;12.73;;;31.80;99.90;;;;;;5072084;28;20012;-62
2022/11/05 10:26:25;;;;;;;20.60;12.63;;;31.70;99.90;;;;;;5075470;28;20469;-63
2022/11/05 10:28:53;;;;;;;19.15;13.48;;;31.70;99.90;;;;;;5075702;28;20120;-64
2022/11/05 10:31:21;;;;;;;18.80;12.50;;;31.70;99.90;;;;;;5075236;28;20512;-64
2022/11/05 10:33:52;;;;;;;27.38;12.50;;;31.60;99.90;;;;;;5075399;28;20029;-63
2022/11/05 10:36:21;;;;;;;25.92;13.10;;;31.70;99.90;;;;;;5075700;28;20033;-63
2022/11/05 10:38:48;;;;;;;18.90;13.55;;;31.60;99.90;;;;;;5075088;28;20583;-62
2022/11/05 10:41:40;;;;;;;208.43;154.15;;;31.60;99.90;;;;;;5075419;28;20447;-63
2022/11/05 10:44:07;;;;;;;99.47;74.63;;;31.50;99.90;;;;;;5075172;28;20035;-64
2022/11/05 10:46:38;;;;;;;545.30;443.45;;;31.50;99.90;;;;;;5068176;28;20482;-63
2022/11/05 10:49:22;;;;;;;190.60;140.95;;;31.50;99.90;;;;;;5073064;28;20392;-63
2022/11/05 10:51:55;;;;;;;171.15;119.65;;;31.50;99.90;;;;;;5069968;28;20013;-64
2022/11/05 10:54:28;;;;;;;89.18;46.90;;;31.40;99.90;;;;;;5074865;28;20020;-62
2022/11/05 10:56:55;;;;;;;59.72;29.05;;;31.40;99.90;;;;;;5075167;28;20508;-66
2022/11/05 10:59:26;;;;;;;46.33;22.45;;;31.40;99.90;;;;;;5059751;28;20025;-66
2022/11/05 11:02:21;;;;;;;42.00;18.67;;;31.30;99.90;;;;;;5054893;28;20029;-64
2022/11/05 11:04:57;;;;;;;35.58;21.48;;;31.20;99.90;;;;;;5006709;28;20038;-61
2022/11/05 11:07:26;;;;;;;39.65;22.90;;;31.10;99.90;;;;;;5006207;28;20054;-63
2022/11/05 11:09:53;;;;;;;29.52;19.58;;;31.10;99.90;;;;;;4997639;28;20026;-62
2022/11/05 11:12:24;;;;;;;32.03;18.40;;;31.20;99.90;;;;;;5019770;28;20085;-64
2022/11/05 11:15:13;;;;;;;37.92;20.52;;;31.20;99.90;;;;;;5002761;28;20038;-63
2022/11/05 11:17:42;;;;;;;33.45;20.73;;;31.10;99.90;;;;;;4967578;28;20038;-64
2022/11/05 11:20:21;;;;;;;38.78;21.85;;;31.00;99.90;;;;;;4971477;28;20035;-66
2022/11/05 11:22:59;;;;;;;54.30;25.92;;;31.00;99.90;;;;;;4970984;28;20038;-64
2022/11/05 11:25:38;;;;;;;46.65;24.17;;;31.00;99.90;;;;;;4973594;28;20049;-64
2022/11/05 11:28:06;;;;;;;38.45;23.67;;;31.00;99.90;;;;;;4974286;28;20142;-64
2022/11/05 11:30:33;;;;;;;35.53;22.15;;;30.90;99.90;;;;;;4975157;28;20042;-64
2022/11/05 11:33:11;;;;;;;40.42;22.77;;;30.90;99.90;;;;;;4972713;28;20053;-65
2022/11/05 11:35:44;;;;;;;41.63;23.23;;;30.90;99.90;;;;;;4983483;28;20038;-65
2022/11/05 11:38:15;;;;;;;44.13;25.33;;;30.80;99.90;;;;;;4988765;28;20040;-65
2022/11/05 11:40:42;;;;;;;48.47;26.63;;;30.80;99.90;;;;;;4991436;28;20033;-65
2022/11/05 11:43:31;;;;;;;55.20;28.58;;;30.80;99.90;;;;;;4991935;28;20034;-65
2022/11/05 11:45:58;;;;;;;48.45;27.38;;;30.80;99.90;;;;;;4990316;28;20034;-66
2022/11/05 11:48:28;;;;;;;50.72;27.35;;;30.80;99.90;;;;;;4991836;28;20033;-65
2022/11/05 11:50:56;;;;;;;41.38;26.02;;;30.70;99.90;;;;;;4990205;28;20663;-65
2022/11/05 11:53:23;;;;;;;43.78;24.05;;;30.70;99.90;;;;;;4989806;28;20567;-66
2022/11/05 11:55:57;;;;;;;43.78;23.85;;;30.70;99.90;;;;;;5070304;28;20478;-65
2022/11/05 11:58:53;;;;;;;45.05;26.48;;;30.70;99.90;;;;;;5072222;28;20466;-65
2022/11/05 12:01:21;;;;;;;43.53;24.88;;;30.70;99.90;;;;;;5071159;28;20104;-65
2022/11/05 12:03:51;;;;;;;43.13;23.73;;;30.70;99.90;;;;;;5069432;28;20020;-65
2022/11/05 12:06:31;;;;;;;39.15;21.55;;;30.60;99.90;;;;;;5072091;28;20024;-65
2022/11/05 12:09:09;;;;;;;39.83;20.90;;;30.60;99.90;;;;;;5070925;28;20516;-65
2022/11/05 12:11:41;;;;;;;35.90;19.45;;;30.60;99.90;;;;;;5070372;28;20485;-65
2022/11/05 12:14:37;;;;;;;31.98;20.00;;;30.60;99.90;;;;;;5070273;28;20095;-64
2022/11/05 12:17:11;;;;;;;26.60;17.38;;;30.50;99.90;;;;;;5072419;28;20020;-65
2022/11/05 12:19:45;;;;;;;30.63;18.70;;;30.50;99.90;;;;;;5073103;28;20033;-65
2022/11/05 12:22:28;;;;;;;31.60;16.77;;;30.50;99.90;;;;;;5073464;28;20047;-65
2022/11/05 12:24:55;;;;;;;37.47;18.67;;;30.50;99.90;;;;;;5073106;28;20195;-65
2022/11/05 12:27:50;;;;;;;39.60;19.20;;;30.40;99.90;;;;;;5072965;28;20029;-65
2022/11/05 12:30:19;;;;;;;34.90;18.77;;;30.40;99.90;;;;;;5070550;28;20036;-65
2022/11/05 12:32:53;;;;;;;37.17;18.75;;;30.40;99.90;;;;;;5073554;28;20393;-65
2022/11/05 12:35:30;;;;;;;34.20;18.55;;;30.40;99.90;;;;;;5073055;28;20354;-65
2022/11/05 12:38:17;;;;;;;32.50;17.50;;;30.40;99.90;;;;;;5071423;28;20021;-65
2022/11/05 12:40:54;;;;;;;31.48;17.75;;;30.40;99.90;;;;;;5004719;28;20502;-65
2022/11/05 12:43:41;;;;;;;32.78;17.55;;;30.40;99.90;;;;;;5002757;28;20044;-65
2022/11/05 12:46:34;;;;;;;30.08;16.95;;;30.40;99.90;;;;;;4962935;28;20041;-65
2022/11/05 12:49:00;;;;;;;25.80;17.30;;;30.40;99.90;;;;;;4969570;28;20099;-65
2022/11/05 12:51:31;;;;;;;29.88;16.35;;;30.40;99.90;;;;;;4972333;28;20031;-65
2022/11/05 12:54:09;;;;;;;29.65;16.50;;;30.40;99.90;;;;;;4972252;28;20089;-64
2022/11/05 12:56:43;;;;;;;24.65;15.10;;;30.30;99.90;;;;;;4972326;28;20118;-64
2022/11/05 12:59:17;;;;;;;21.75;13.43;;;30.30;99.90;;;;;;4972282;28;20268;-65
2022/11/05 13:01:49;;;;;;;21.75;13.23;;;30.20;99.90;;;;;;4972180;28;20035;-65
2022/11/05 13:04:26;;;;;;;;;;;30.20;99.90;;;;;;4972583;28;20074;-65
2022/11/05 13:06:55;;;;;;;22.60;13.98;;;30.20;99.90;;;;;;4971997;28;19909;-66
2022/11/05 13:09:28;;;;;;;29.55;13.70;;;30.10;99.90;;;;;;4972320;28;20480;-64
2022/11/05 13:11:59;;;;;;;26.52;13.85;;;30.10;99.90;;;;;;4960658;28;20043;-64
2022/11/05 13:14:28;;;;;;;25.23;13.05;;;30.10;99.90;;;;;;4963753;28;20031;-64
2022/11/05 13:17:09;;;;;;;29.55;13.40;;;30.10;99.90;;;;;;4964744;28;20041;-65
2022/11/05 13:19:39;;;;;;;23.50;14.27;;;30.10;99.90;;;;;;4997875;28;20030;-65
2022/11/05 13:22:45;;;;;;;25.85;14.60;;;30.00;99.90;;;;;;5000151;28;20042;-65
2022/11/05 13:25:20;;;;;;;22.55;15.77;;;30.00;99.90;;;;;;4975833;28;20543;-64
2022/11/05 13:28:23;;;;;;;25.77;15.90;;;30.00;99.90;;;;;;4976063;28;20452;-63